Time;durP1;ratioP1;P1;durP2;ratioP2;P2;SDS_P1;SDS_P2;PMS_P1;PMS_P2;Temp;Humidity;BMP_temperature;BMP_pressure;BME280_temperature;BME280_humidity;BME280_pressure;Samples;Min_cycle;Max_cycle;Signal;HPM_P1;HPM_P2
2022/08/06 00:03:27;;;;;;;1.50;1.10;;;;;;;;;;8406238;28;20027;-70
2022/08/06 00:07:27;;;;;;;1.75;1.00;;;;;;;;;;8409354;28;20693;-71
2022/08/06 00:11:27;;;;;;;1.05;0.95;;;;;;;;;;8407839;27;20099;-71
2022/08/06 00:15:28;;;;;;;1.20;1.10;;;;;;;;;;8408790;28;20047;-71
2022/08/06 00:19:28;;;;;;;1.08;0.98;;;;;;;;;;8409080;28;20369;-71
2022/08/06 00:23:28;;;;;;;3.15;0.88;;;;;;;;;;8389026;28;20043;-71
2022/08/06 00:27:29;;;;;;;2.47;1.00;;;;;;;;;;8406287;28;20559;-71
2022/08/06 00:31:29;;;;;;;1.30;1.20;;;;;;;;;;8405957;28;20488;-71
2022/08/06 00:35:29;;;;;;;1.23;1.13;;;;;;;;;;8405484;28;20836;-70
2022/08/06 00:39:29;;;;;;;2.90;1.33;;;;;;;;;;8406446;28;20077;-71
2022/08/06 00:43:29;;;;;;;1.90;1.20;;;;;;;;;;8406986;28;20434;-71
2022/08/06 00:47:30;;;;;;;3.00;1.30;;;;;;;;;;8387672;28;20043;-71
2022/08/06 00:51:30;;;;;;;2.28;1.20;;;;;;;;;;8387467;28;20115;-71
2022/08/06 00:55:30;;;;;;;2.63;1.10;;;;;;;;;;8381033;28;20592;-70
2022/08/06 00:59:31;;;;;;;1.98;1.08;;;;;;;;;;8405239;28;20035;-70
2022/08/06 01:03:31;;;;;;;2.00;1.20;;;;;;;;;;8403734;28;20132;-70
2022/08/06 01:07:31;;;;;;;2.40;1.10;;;;;;;;;;8386247;28;20035;-71
2022/08/06 01:11:31;;;;;;;2.47;1.17;;;;;;;;;;8417469;28;20940;-71
2022/08/06 01:15:33;;;;;;;5.30;1.45;;;;;;;;;;8416328;28;20364;-71
2022/08/06 01:19:42;;;;;;;1.58;1.10;;;;;;;;;;8413708;28;20093;-70
2022/08/06 01:23:52;;;;;;;1.00;0.90;;;;;;;;;;8413289;28;20027;-71
2022/08/06 01:27:56;;;;;;;1.60;1.20;;;;;;;;;;8410630;28;20023;-71
2022/08/06 01:31:59;;;;;;;3.15;1.10;;;;;;;;;;8410508;28;21137;-71
2022/08/06 01:36:01;;;;;;;1.97;1.10;;;;;;;;;;8412822;28;20028;-70
2022/08/06 01:40:04;;;;;;;2.08;1.38;;;;;;;;;;8410874;28;20074;-70
2022/08/06 01:44:19;;;;;;;1.38;1.10;;;;;;;;;;8414919;28;20499;-71
2022/08/06 01:48:23;;;;;;;2.70;1.20;;;;;;;;;;8412714;28;20036;-70
2022/08/06 01:52:24;;;;;;;1.52;1.10;;;;;;;;;;8412798;28;20024;-71
2022/08/06 01:56:25;;;;;;;3.22;1.15;;;;;;;;;;8412619;28;20031;-70
2022/08/06 02:00:25;;;;;;;3.05;1.00;;;;;;;;;;8409801;28;20035;-71
2022/08/06 02:04:27;;;;;;;1.45;1.00;;;;;;;;;;8411031;28;20050;-70
2022/08/06 02:08:29;;;;;;;2.03;1.05;;;;;;;;;;8410733;28;20027;-71
2022/08/06 02:12:30;;;;;;;1.58;1.00;;;;;;;;;;8410080;27;20977;-71
2022/08/06 02:16:33;;;;;;;2.22;1.10;;;;;;;;;;8413757;28;20048;-71
2022/08/06 02:20:35;;;;;;;1.40;0.90;;;;;;;;;;8409072;28;20035;-71
2022/08/06 02:24:36;;;;;;;1.85;1.10;;;;;;;;;;8410476;27;20031;-71
2022/08/06 02:28:37;;;;;;;2.30;1.30;;;;;;;;;;8412042;28;20040;-71
2022/08/06 02:32:38;;;;;;;1.13;1.00;;;;;;;;;;8410210;28;20905;-70
2022/08/06 02:36:43;;;;;;;1.98;1.10;;;;;;;;;;8409943;28;20083;-71
2022/08/06 02:40:46;;;;;;;1.25;1.15;;;;;;;;;;8409064;28;20304;-70
2022/08/06 02:45:02;;;;;;;1.17;1.10;;;;;;;;;;8411296;28;20126;-71
2022/08/06 02:49:04;;;;;;;2.85;1.10;;;;;;;;;;8411925;28;20134;-71
2022/08/06 02:53:13;;;;;;;1.63;1.17;;;;;;;;;;8409379;28;20016;-70
2022/08/06 02:57:30;;;;;;;1.70;0.95;;;;;;;;;;8409050;28;20089;-70
2022/08/06 03:01:42;;;;;;;1.40;1.00;;;;;;;;;;8409974;27;20951;-71
2022/08/06 03:05:44;;;;;;;1.70;1.10;;;;;;;;;;8384431;28;20031;-70
2022/08/06 03:09:46;;;;;;;2.42;1.20;;;;;;;;;;8410097;28;20015;-70
2022/08/06 03:13:47;;;;;;;2.90;1.35;;;;;;;;;;8413260;28;20455;-70
2022/08/06 03:17:47;;;;;;;1.58;0.93;;;;;;;;;;8407907;28;20039;-71
2022/08/06 03:21:48;;;;;;;2.30;1.30;;;;;;;;;;8410434;28;20035;-71
2022/08/06 03:25:49;;;;;;;1.00;1.00;;;;;;;;;;8410741;28;20833;-71
2022/08/06 03:29:49;;;;;;;1.40;1.10;;;;;;;;;;8409067;28;20514;-71
2022/08/06 03:33:50;;;;;;;2.92;1.10;;;;;;;;;;8408966;28;20032;-71
2022/08/06 03:37:51;;;;;;;1.23;1.13;;;;;;;;;;8409718;28;20359;-71
2022/08/06 03:41:52;;;;;;;2.65;1.30;;;;;;;;;;8408127;28;20020;-71
2022/08/06 03:45:53;;;;;;;2.53;1.20;;;;;;;;;;8410099;28;20477;-71
2022/08/06 03:50:05;;;;;;;1.35;1.00;;;;;;;;;;8408599;28;20032;-71
2022/08/06 03:54:06;;;;;;;2.60;1.20;;;;;;;;;;8408881;28;20019;-71
2022/08/06 03:58:08;;;;;;;2.30;1.10;;;;;;;;;;8412277;28;20030;-71
2022/08/06 04:02:09;;;;;;;1.58;1.10;;;;;;;;;;8411272;28;20032;-71
2022/08/06 04:06:10;;;;;;;2.03;1.20;;;;;;;;;;8408741;28;20023;-71
2022/08/06 04:10:11;;;;;;;1.50;1.00;;;;;;;;;;8408329;28;20103;-71
2022/08/06 04:14:12;;;;;;;3.83;1.20;;;;;;;;;;8407017;28;20023;-71
2022/08/06 04:18:14;;;;;;;3.42;1.23;;;;;;;;;;8408689;28;20035;-71
2022/08/06 04:22:14;;;;;;;2.13;1.30;;;;;;;;;;8408982;28;20058;-71
2022/08/06 04:26:17;;;;;;;2.50;1.10;;;;;;;;;;8388588;28;20023;-71
2022/08/06 04:30:17;;;;;;;5.37;1.10;;;;;;;;;;8405246;28;20308;-71
2022/08/06 04:34:20;;;;;;;1.20;0.90;;;;;;;;;;8380725;28;20061;-71
2022/08/06 04:38:21;;;;;;;1.63;0.93;;;;;;;;;;8409692;28;20324;-70
2022/08/06 04:42:21;;;;;;;1.45;0.98;;;;;;;;;;8407401;28;20544;-71
2022/08/06 04:46:22;;;;;;;1.17;1.00;;;;;;;;;;8409395;28;20138;-71
2022/08/06 04:50:22;;;;;;;1.25;1.00;;;;;;;;;;8407828;28;20366;-71
2022/08/06 04:54:22;;;;;;;2.28;1.08;;;;;;;;;;8406781;28;20015;-71
2022/08/06 04:58:23;;;;;;;1.77;0.85;;;;;;;;;;8405719;28;20020;-71
2022/08/06 05:02:23;;;;;;;1.13;0.95;;;;;;;;;;8405583;28;20404;-71
2022/08/06 05:06:28;;;;;;;1.13;0.98;;;;;;;;;;8406326;28;20460;-71
2022/08/06 05:10:49;;;;;;;3.08;1.00;;;;;;;;;;8407362;28;20038;-71
2022/08/06 05:14:49;;;;;;;1.92;1.08;;;;;;;;;;8406781;28;20096;-71
2022/08/06 05:18:50;;;;;;;1.88;1.30;;;;;;;;;;8406455;28;20044;-71
2022/08/06 05:22:52;;;;;;;2.30;1.00;;;;;;;;;;8406434;28;20508;-71
2022/08/06 05:26:53;;;;;;;3.10;1.20;;;;;;;;;;8407034;28;20543;-71
2022/08/06 05:30:53;;;;;;;2.85;1.00;;;;;;;;;;8406635;28;20131;-71
2022/08/06 05:34:54;;;;;;;1.10;1.00;;;;;;;;;;8406752;28;20028;-71
2022/08/06 05:38:54;;;;;;;1.58;0.90;;;;;;;;;;8409864;28;20043;-70
2022/08/06 05:42:54;;;;;;;2.58;0.90;;;;;;;;;;8404522;28;20564;-71
2022/08/06 05:46:56;;;;;;;1.20;0.90;;;;;;;;;;8407251;28;20069;-71
2022/08/06 05:50:59;;;;;;;3.78;1.02;;;;;;;;;;8404706;28;20028;-71
2022/08/06 05:55:19;;;;;;;6.03;1.27;;;;;;;;;;8409915;28;20016;-71
2022/08/06 05:59:24;;;;;;;1.42;1.00;;;;;;;;;;8412804;28;20027;-71
2022/08/06 06:03:24;;;;;;;1.13;0.80;;;;;;;;;;8411930;28;20150;-71
2022/08/06 06:07:25;;;;;;;2.60;1.00;;;;;;;;;;8414665;28;20664;-71
2022/08/06 06:11:26;;;;;;;2.35;0.90;;;;;;;;;;8414883;28;20028;-71
2022/08/06 06:15:26;;;;;;;4.70;0.90;;;;;;;;;;8412278;28;20047;-71
2022/08/06 06:19:31;;;;;;;2.70;0.98;;;;;;;;;;8412169;28;20414;-71
2022/08/06 06:23:34;;;;;;;2.22;0.80;;;;;;;;;;8393423;28;20063;-71
2022/08/06 06:27:56;;;;;;;1.58;0.88;;;;;;;;;;8415911;28;20106;-71
2022/08/06 06:32:01;;;;;;;4.75;0.90;;;;;;;;;;8412511;28;21388;-71
2022/08/06 06:36:03;;;;;;;2.33;0.90;;;;;;;;;;8412332;28;20035;-71
2022/08/06 06:40:03;;;;;;;2.45;0.80;;;;;;;;;;8412759;28;20008;-71
2022/08/06 06:44:22;;;;;;;2.85;0.82;;;;;;;;;;8410563;28;20023;-72
2022/08/06 06:48:31;;;;;;;0.70;0.70;;;;;;;;;;8410923;27;20042;-72
2022/08/06 06:52:34;;;;;;;1.55;0.70;;;;;;;;;;8411345;28;20506;-71
2022/08/06 06:56:36;;;;;;;0.77;0.60;;;;;;;;;;8411268;28;20019;-72
2022/08/06 07:00:37;;;;;;;1.67;0.80;;;;;;;;;;8410854;28;20143;-71
2022/08/06 07:04:38;;;;;;;0.68;0.65;;;;;;;;;;8412334;28;20059;-71
2022/08/06 07:08:44;;;;;;;2.08;0.90;;;;;;;;;;8411107;28;20011;-71
2022/08/06 07:12:45;;;;;;;0.75;0.73;;;;;;;;;;8414918;28;20043;-71
2022/08/06 07:16:46;;;;;;;2.45;0.85;;;;;;;;;;8412018;28;20035;-72
2022/08/06 07:20:47;;;;;;;3.28;0.80;;;;;;;;;;8411820;28;20019;-72
2022/08/06 07:24:48;;;;;;;0.90;0.80;;;;;;;;;;8412184;27;20024;-72
2022/08/06 07:28:50;;;;;;;4.03;0.82;;;;;;;;;;8412623;28;20031;-71
2022/08/06 07:32:51;;;;;;;1.55;0.70;;;;;;;;;;8411057;27;20511;-71
2022/08/06 07:36:52;;;;;;;0.73;0.73;;;;;;;;;;8411712;28;20050;-72
2022/08/06 07:40:54;;;;;;;1.23;0.90;;;;;;;;;;8412473;28;20504;-71
2022/08/06 07:44:57;;;;;;;1.45;0.70;;;;;;;;;;8412896;28;20265;-72
2022/08/06 07:48:59;;;;;;;3.75;0.60;;;;;;;;;;8411851;28;20036;-72
2022/08/06 07:52:59;;;;;;;;;;;;;;;;;;8391011;27;20023;-71
2022/08/06 07:57:00;;;;;;;1.85;0.55;;;;;;;;;;8412879;28;19912;-71
2022/08/06 08:01:00;;;;;;;3.78;0.80;;;;;;;;;;8410604;28;20043;-72
2022/08/06 08:09:22;;;;;;;2.15;0.85;;;;;;;;;;8411459;28;20911;-72
2022/08/06 08:13:23;;;;;;;1.90;0.80;;;;;;;;;;8408430;27;20729;-71
2022/08/06 08:17:24;;;;;;;1.27;0.80;;;;;;;;;;8409323;28;20059;-71
2022/08/06 08:21:24;;;;;;;0.95;0.80;;;;;;;;;;8410567;28;20485;-71
2022/08/06 08:25:25;;;;;;;4.25;0.65;;;;;;;;;;8410540;28;20114;-71
2022/08/06 08:29:25;;;;;;;1.17;0.70;;;;;;;;;;8413618;28;20057;-71
2022/08/06 08:33:25;;;;;;;0.93;0.80;;;;;;;;;;8410250;28;20035;-72
2022/08/06 08:37:26;;;;;;;1.30;0.87;;;;;;;;;;8412875;28;20825;-71
2022/08/06 08:41:49;;;;;;;5.65;0.77;;;;;;;;;;8409240;28;20427;-71
2022/08/06 08:45:50;;;;;;;1.95;0.80;;;;;;;;;;8400154;28;20036;-71
2022/08/06 08:49:52;;;;;;;2.22;0.90;;;;;;;;;;8410173;28;20027;-71
2022/08/06 08:53:53;;;;;;;5.38;0.95;;;;;;;;;;8409094;28;20118;-71
2022/08/06 08:57:55;;;;;;;2.63;0.80;;;;;;;;;;8407616;28;20867;-72
2022/08/06 09:01:55;;;;;;;;;;;;;;;;;;8410668;28;20036;-72
2022/08/06 09:05:55;;;;;;;3.55;0.88;;;;;;;;;;8412881;28;20922;-71
2022/08/06 09:09:56;;;;;;;3.13;0.80;;;;;;;;;;8408425;28;20182;-72
2022/08/06 09:13:56;;;;;;;2.67;0.83;;;;;;;;;;8409806;28;20674;-71
2022/08/06 09:17:56;;;;;;;2.72;0.60;;;;;;;;;;8411805;28;20667;-71
2022/08/06 09:21:57;;;;;;;2.80;0.60;;;;;;;;;;8407839;28;20495;-71
2022/08/06 09:26:03;;;;;;;1.20;0.65;;;;;;;;;;8410441;28;20034;-71
2022/08/06 09:30:05;;;;;;;4.43;0.80;;;;;;;;;;8406817;28;20722;-72
2022/08/06 09:34:06;;;;;;;1.67;0.65;;;;;;;;;;8415964;28;20023;-71
2022/08/06 09:38:09;;;;;;;7.15;0.77;;;;;;;;;;8418178;28;20019;-72
2022/08/06 09:42:09;;;;;;;0.60;0.60;;;;;;;;;;8413819;28;20044;-71
2022/08/06 09:46:09;;;;;;;2.00;0.90;;;;;;;;;;8415613;27;20123;-71
2022/08/06 09:50:10;;;;;;;4.65;0.80;;;;;;;;;;8416963;28;20273;-71
2022/08/06 09:54:15;;;;;;;1.83;0.80;;;;;;;;;;8415598;28;20633;-71
2022/08/06 09:58:26;;;;;;;1.60;0.70;;;;;;;;;;8415463;28;20028;-71
2022/08/06 10:02:32;;;;;;;1.80;0.57;;;;;;;;;;8413616;28;20067;-71
2022/08/06 10:06:32;;;;;;;1.70;0.77;;;;;;;;;;8415054;28;20480;-71
2022/08/06 10:10:43;;;;;;;2.37;0.70;;;;;;;;;;8416378;28;20405;-71
2022/08/06 10:14:44;;;;;;;0.55;0.55;;;;;;;;;;8388769;28;20327;-71
2022/08/06 10:18:46;;;;;;;2.65;1.00;;;;;;;;;;8412582;28;20047;-72
2022/08/06 10:22:54;;;;;;;0.98;0.63;;;;;;;;;;8413503;28;20400;-72
2022/08/06 10:26:55;;;;;;;3.58;0.90;;;;;;;;;;8414041;28;20446;-72
2022/08/06 10:30:55;;;;;;;1.70;0.60;;;;;;;;;;8413541;28;20111;-71
2022/08/06 10:34:55;;;;;;;1.13;0.70;;;;;;;;;;8417809;28;20034;-71
2022/08/06 10:38:56;;;;;;;2.88;0.80;;;;;;;;;;8415316;28;20049;-72
2022/08/06 10:42:58;;;;;;;1.05;0.70;;;;;;;;;;8411987;27;20501;-71
2022/08/06 10:46:59;;;;;;;;;;;;;;;;;;8414600;28;20109;-71
2022/08/06 10:50:59;;;;;;;2.15;0.70;;;;;;;;;;8410599;28;19911;-72
2022/08/06 10:55:00;;;;;;;2.13;0.80;;;;;;;;;;8414471;27;20815;-71
2022/08/06 10:59:01;;;;;;;1.80;0.70;;;;;;;;;;8414799;27;20056;-71
2022/08/06 11:03:14;;;;;;;1.50;0.70;;;;;;;;;;8412148;28;20105;-71
2022/08/06 11:07:22;;;;;;;0.95;0.73;;;;;;;;;;8416041;27;20074;-71
2022/08/06 11:11:30;;;;;;;0.80;0.60;;;;;;;;;;8411952;28;20490;-71
2022/08/06 11:15:35;;;;;;;1.90;0.77;;;;;;;;;;8413508;28;20035;-71
2022/08/06 11:19:39;;;;;;;3.30;0.90;;;;;;;;;;8415443;28;20108;-72
2022/08/06 11:23:40;;;;;;;2.70;0.70;;;;;;;;;;8412523;27;20034;-72
2022/08/06 11:27:48;;;;;;;1.42;0.60;;;;;;;;;;8413611;28;20016;-71
2022/08/06 11:31:50;;;;;;;1.15;0.80;;;;;;;;;;8411113;28;20071;-72
2022/08/06 11:35:50;;;;;;;0.93;0.65;;;;;;;;;;8413745;28;20498;-72
2022/08/06 11:40:04;;;;;;;2.87;0.70;;;;;;;;;;8414042;28;20458;-72
2022/08/06 11:44:08;;;;;;;1.55;0.68;;;;;;;;;;8411877;27;20519;-72
2022/08/06 11:48:08;;;;;;;2.13;0.70;;;;;;;;;;8411382;28;20084;-72
2022/08/06 11:52:09;;;;;;;2.17;0.70;;;;;;;;;;8412646;28;20027;-71
2022/08/06 11:56:10;;;;;;;1.83;0.70;;;;;;;;;;8411250;28;20897;-71
2022/08/06 12:00:13;;;;;;;1.45;0.60;;;;;;;;;;8408207;28;20562;-72
2022/08/06 12:04:32;;;;;;;2.33;0.70;;;;;;;;;;8408754;28;20030;-71
2022/08/06 12:08:32;;;;;;;2.95;0.70;;;;;;;;;;8410399;28;20078;-71
2022/08/06 12:12:45;;;;;;;1.48;0.68;;;;;;;;;;8410260;28;20072;-71
2022/08/06 12:16:45;;;;;;;1.60;0.70;;;;;;;;;;8407258;28;20039;-71
2022/08/06 12:20:45;;;;;;;1.08;0.60;;;;;;;;;;8406845;28;20118;-72
2022/08/06 12:24:48;;;;;;;4.70;0.70;;;;;;;;;;8406952;28;20050;-72
2022/08/06 12:28:48;;;;;;;0.60;0.60;;;;;;;;;;8408349;28;20081;-72
2022/08/06 12:32:49;;;;;;;1.70;0.60;;;;;;;;;;8407203;27;20043;-71
2022/08/06 12:36:49;;;;;;;13.50;1.00;;;;;;;;;;8406729;28;20027;-71
2022/08/06 12:40:53;;;;;;;0.95;0.60;;;;;;;;;;8406281;28;20212;-71
2022/08/06 12:44:53;;;;;;;0.90;0.70;;;;;;;;;;8408380;28;20034;-71
2022/08/06 12:48:54;;;;;;;1.15;0.70;;;;;;;;;;8406098;28;20059;-71
2022/08/06 12:53:03;;;;;;;0.73;0.60;;;;;;;;;;8408740;28;20141;-72
2022/08/06 12:57:04;;;;;;;1.00;0.63;;;;;;;;;;8408424;28;20838;-71
2022/08/06 13:01:05;;;;;;;2.33;0.60;;;;;;;;;;8405655;28;20096;-72
2022/08/06 13:05:05;;;;;;;1.13;0.60;;;;;;;;;;8409863;28;20103;-71
2022/08/06 13:09:06;;;;;;;1.63;0.50;;;;;;;;;;8416119;27;20031;-71
2022/08/06 13:13:09;;;;;;;1.45;0.70;;;;;;;;;;8415156;28;20055;-72
2022/08/06 13:17:13;;;;;;;1.77;0.60;;;;;;;;;;8415748;28;20113;-71
2022/08/06 13:21:17;;;;;;;2.60;0.70;;;;;;;;;;8412931;28;20019;-71
2022/08/06 13:25:19;;;;;;;1.10;0.70;;;;;;;;;;8417658;28;20066;-71
2022/08/06 13:29:22;;;;;;;0.83;0.60;;;;;;;;;;8414454;28;20168;-71
2022/08/06 13:33:24;;;;;;;1.08;0.60;;;;;;;;;;8414300;28;20243;-71
2022/08/06 13:37:40;;;;;;;1.52;0.60;;;;;;;;;;8415765;28;20034;-71
2022/08/06 13:41:40;;;;;;;4.40;0.60;;;;;;;;;;8414014;28;20028;-71
2022/08/06 13:45:40;;;;;;;1.65;0.57;;;;;;;;;;8411805;28;20039;-71
2022/08/06 13:49:41;;;;;;;4.47;0.60;;;;;;;;;;8413116;28;21094;-71
2022/08/06 13:53:41;;;;;;;3.77;0.63;;;;;;;;;;8413070;28;20136;-71
2022/08/06 13:57:41;;;;;;;1.48;0.77;;;;;;;;;;8412536;28;20027;-71
2022/08/06 14:01:41;;;;;;;1.73;0.68;;;;;;;;;;8393511;28;20036;-72
2022/08/06 14:05:42;;;;;;;2.15;0.60;;;;;;;;;;8413905;27;20031;-71
2022/08/06 14:09:42;;;;;;;1.13;0.60;;;;;;;;;;8412421;28;20062;-71
2022/08/06 14:13:42;;;;;;;4.07;0.88;;;;;;;;;;8414969;28;20027;-71
2022/08/06 14:17:43;;;;;;;5.03;1.00;;;;;;;;;;8411136;27;20040;-71
2022/08/06 14:21:43;;;;;;;1.00;0.60;;;;;;;;;;8411739;27;20552;-72
2022/08/06 14:25:44;;;;;;;2.20;0.60;;;;;;;;;;8412890;28;20064;-72
2022/08/06 14:29:44;;;;;;;2.10;0.60;;;;;;;;;;8411818;27;20019;-71
2022/08/06 14:33:44;;;;;;;2.27;0.70;;;;;;;;;;8413699;28;20036;-71
2022/08/06 14:37:45;;;;;;;9.85;1.00;;;;;;;;;;8414455;28;20024;-71
2022/08/06 14:46:04;;;;;;;2.05;0.68;;;;;;;;;;8413585;28;20287;-71
2022/08/06 14:50:04;;;;;;;2.75;0.80;;;;;;;;;;8386321;28;20051;-71
2022/08/06 14:54:04;;;;;;;0.73;0.60;;;;;;;;;;8415288;28;20318;-72
2022/08/06 14:58:05;;;;;;;1.38;0.70;;;;;;;;;;8411606;28;20097;-71
2022/08/06 15:02:05;;;;;;;2.47;0.60;;;;;;;;;;8411243;27;20429;-71
2022/08/06 15:06:05;;;;;;;2.25;0.63;;;;;;;;;;8415441;28;20027;-71
2022/08/06 15:10:05;;;;;;;1.35;0.80;;;;;;;;;;8410786;27;20027;-71
2022/08/06 15:14:06;;;;;;;0.60;0.60;;;;;;;;;;8412982;28;20224;-72
2022/08/06 15:18:06;;;;;;;0.60;0.60;;;;;;;;;;8411003;28;20263;-71
2022/08/06 15:22:06;;;;;;;0.60;0.50;;;;;;;;;;8410203;28;20092;-71
2022/08/06 15:26:06;;;;;;;1.55;0.50;;;;;;;;;;8413420;28;20020;-71
2022/08/06 15:30:06;;;;;;;3.40;0.65;;;;;;;;;;8411112;28;20567;-71
2022/08/06 15:34:07;;;;;;;1.38;0.80;;;;;;;;;;8413468;28;20408;-71
2022/08/06 15:38:07;;;;;;;0.60;0.60;;;;;;;;;;8410560;28;20035;-71
2022/08/06 15:42:07;;;;;;;1.75;0.60;;;;;;;;;;8408486;28;20024;-71
2022/08/06 15:46:07;;;;;;;2.17;0.60;;;;;;;;;;8408891;28;20031;-71
2022/08/06 15:50:08;;;;;;;2.45;0.60;;;;;;;;;;8409496;28;20444;-71
2022/08/06 15:54:08;;;;;;;2.00;0.70;;;;;;;;;;8410516;28;20020;-71
2022/08/06 15:58:09;;;;;;;0.50;0.50;;;;;;;;;;8406715;28;20016;-71
2022/08/06 16:02:09;;;;;;;3.05;0.60;;;;;;;;;;8412127;28;20033;-71
2022/08/06 16:06:09;;;;;;;4.05;0.80;;;;;;;;;;8409912;27;20027;-71
2022/08/06 16:10:10;;;;;;;0.88;0.70;;;;;;;;;;8409564;28;20130;-72
2022/08/06 16:14:10;;;;;;;1.47;0.70;;;;;;;;;;8410726;28;20492;-71
2022/08/06 16:18:11;;;;;;;2.47;0.60;;;;;;;;;;8410998;28;20283;-71
2022/08/06 16:22:12;;;;;;;2.15;0.68;;;;;;;;;;8409179;28;20057;-71
2022/08/06 16:26:15;;;;;;;2.45;0.63;;;;;;;;;;8408305;28;20532;-71
2022/08/06 16:30:16;;;;;;;0.85;0.85;;;;;;;;;;8408517;28;20040;-71
2022/08/06 16:34:16;;;;;;;1.20;0.60;;;;;;;;;;8410748;28;20038;-71
2022/08/06 16:38:17;;;;;;;3.58;0.65;;;;;;;;;;8411001;27;20036;-71
2022/08/06 16:42:17;;;;;;;3.17;1.13;;;;;;;;;;8410546;28;20024;-71
2022/08/06 16:46:18;;;;;;;2.15;1.55;;;;;;;;;;8408108;28;20090;-71
2022/08/06 16:50:19;;;;;;;2.90;0.85;;;;;;;;;;8408197;28;20111;-71
2022/08/06 16:54:19;;;;;;;2.55;0.70;;;;;;;;;;8409414;28;20015;-71
2022/08/06 16:58:19;;;;;;;1.45;0.50;;;;;;;;;;8410864;28;20180;-71
2022/08/06 17:02:37;;;;;;;1.90;0.50;;;;;;;;;;8406823;28;20039;-72
2022/08/06 17:06:38;;;;;;;0.75;0.50;;;;;;;;;;8410309;28;20034;-71
2022/08/06 17:10:38;;;;;;;0.50;0.50;;;;;;;;;;8411045;28;20102;-71
2022/08/06 17:14:38;;;;;;;1.35;0.60;;;;;;;;;;8407779;28;20027;-71
2022/08/06 17:18:38;;;;;;;0.60;0.60;;;;;;;;;;8409553;28;20788;-71
2022/08/06 17:22:39;;;;;;;2.90;0.50;;;;;;;;;;8409631;28;20051;-71
2022/08/06 17:26:39;;;;;;;2.20;0.68;;;;;;;;;;8408268;28;20078;-71
2022/08/06 17:30:39;;;;;;;1.05;0.60;;;;;;;;;;8388792;28;20829;-71
2022/08/06 17:34:41;;;;;;;0.50;0.50;;;;;;;;;;8406066;28;20535;-72
2022/08/06 17:38:41;;;;;;;1.00;0.60;;;;;;;;;;8388548;28;20059;-71
2022/08/06 17:42:41;;;;;;;1.17;0.60;;;;;;;;;;8410748;28;20099;-71
2022/08/06 17:46:41;;;;;;;1.00;0.60;;;;;;;;;;8407100;28;20863;-71
2022/08/06 17:50:41;;;;;;;1.00;0.50;;;;;;;;;;8410271;28;20031;-71
2022/08/06 17:54:42;;;;;;;1.00;0.60;;;;;;;;;;8415190;28;20023;-71
2022/08/06 17:58:44;;;;;;;0.63;0.50;;;;;;;;;;8374968;28;20104;-71
2022/08/06 18:02:44;;;;;;;0.45;0.45;;;;;;;;;;8412737;27;20040;-71
2022/08/06 18:06:44;;;;;;;0.70;0.47;;;;;;;;;;8415072;27;20026;-71
2022/08/06 18:10:44;;;;;;;0.50;0.50;;;;;;;;;;8410701;28;20100;-72
2022/08/06 18:14:44;;;;;;;1.00;0.50;;;;;;;;;;8414104;28;20369;-71
2022/08/06 18:18:46;;;;;;;1.52;0.50;;;;;;;;;;8413909;28;20100;-71
2022/08/06 18:22:47;;;;;;;1.02;0.57;;;;;;;;;;8412974;28;20031;-71
2022/08/06 18:26:47;;;;;;;1.07;0.50;;;;;;;;;;8394382;28;20027;-71
2022/08/06 18:30:47;;;;;;;4.30;0.60;;;;;;;;;;8413144;27;20276;-71
2022/08/06 18:34:48;;;;;;;0.40;0.40;;;;;;;;;;8413471;27;20693;-71
2022/08/06 18:38:48;;;;;;;0.45;0.45;;;;;;;;;;8417112;27;20074;-71
2022/08/06 18:42:48;;;;;;;1.10;0.60;;;;;;;;;;8414113;28;20038;-71
2022/08/06 18:46:49;;;;;;;0.45;0.45;;;;;;;;;;8414695;28;20045;-71
2022/08/06 18:50:49;;;;;;;2.42;0.60;;;;;;;;;;8410543;28;20552;-71
2022/08/06 18:54:50;;;;;;;1.20;1.10;;;;;;;;;;8413908;28;20048;-71
2022/08/06 18:58:50;;;;;;;0.75;0.57;;;;;;;;;;8412885;27;20463;-71
2022/08/06 19:02:51;;;;;;;2.22;0.60;;;;;;;;;;8412223;28;20506;-71
2022/08/06 19:06:52;;;;;;;0.82;0.50;;;;;;;;;;8414196;27;20028;-71
2022/08/06 19:10:52;;;;;;;0.50;0.50;;;;;;;;;;8415552;28;20328;-71
2022/08/06 19:14:52;;;;;;;2.08;0.40;;;;;;;;;;8412422;28;20035;-71
2022/08/06 19:18:52;;;;;;;1.75;0.70;;;;;;;;;;8409655;27;20041;-71
2022/08/06 19:22:52;;;;;;;0.40;0.40;;;;;;;;;;8413688;27;20047;-71
2022/08/06 19:26:53;;;;;;;1.08;0.70;;;;;;;;;;8411855;28;20071;-71
2022/08/06 19:30:53;;;;;;;0.68;0.45;;;;;;;;;;8412795;28;20199;-71
2022/08/06 19:34:54;;;;;;;0.90;0.50;;;;;;;;;;8409727;28;20367;-71
2022/08/06 19:38:54;;;;;;;1.20;0.52;;;;;;;;;;8410969;28;20599;-71
2022/08/06 19:42:54;;;;;;;1.70;0.50;;;;;;;;;;8411496;28;20016;-71
2022/08/06 19:46:55;;;;;;;0.50;0.50;;;;;;;;;;8409259;28;20052;-71
2022/08/06 19:50:55;;;;;;;1.75;0.60;;;;;;;;;;8411956;28;20358;-71
2022/08/06 19:54:56;;;;;;;1.43;0.53;;;;;;;;;;8411834;28;20031;-71
2022/08/06 19:58:57;;;;;;;0.65;0.40;;;;;;;;;;8400585;28;20101;-71
2022/08/06 20:02:57;;;;;;;2.20;0.50;;;;;;;;;;8411496;28;20334;-71
2022/08/06 20:06:58;;;;;;;0.82;0.50;;;;;;;;;;8411397;28;20107;-70
2022/08/06 20:11:00;;;;;;;1.17;0.50;;;;;;;;;;8408376;27;20168;-71
2022/08/06 20:15:01;;;;;;;0.40;0.40;;;;;;;;;;8407744;28;20418;-71
2022/08/06 20:19:01;;;;;;;0.85;0.50;;;;;;;;;;8408407;28;20035;-71
2022/08/06 20:23:01;;;;;;;4.82;0.60;;;;;;;;;;8410523;28;20797;-71
2022/08/06 20:27:01;;;;;;;0.60;0.60;;;;;;;;;;8389419;28;20023;-71
2022/08/06 20:31:01;;;;;;;2.13;0.60;;;;;;;;;;8405701;28;20042;-71
2022/08/06 20:35:02;;;;;;;0.52;0.52;;;;;;;;;;8406987;28;20020;-71
2022/08/06 20:39:02;;;;;;;1.15;0.70;;;;;;;;;;8408355;28;20867;-71
2022/08/06 20:43:03;;;;;;;0.50;0.50;;;;;;;;;;8405742;28;20020;-70
2022/08/06 20:47:04;;;;;;;0.70;0.60;;;;;;;;;;8407225;28;20381;-71
2022/08/06 20:51:04;;;;;;;1.10;0.57;;;;;;;;;;8406191;28;20031;-71
2022/08/06 20:55:06;;;;;;;0.63;0.60;;;;;;;;;;8407955;28;20031;-71
2022/08/06 20:59:06;;;;;;;1.40;0.70;;;;;;;;;;8407572;28;20023;-71
2022/08/06 21:03:06;;;;;;;3.22;0.68;;;;;;;;;;8409451;28;20585;-71
2022/08/06 21:07:07;;;;;;;2.67;0.60;;;;;;;;;;8410915;28;20012;-71
2022/08/06 21:11:07;;;;;;;1.25;0.60;;;;;;;;;;8410135;28;20427;-70
2022/08/06 21:15:08;;;;;;;1.55;0.60;;;;;;;;;;8390243;28;20115;-71
2022/08/06 21:19:08;;;;;;;1.95;0.47;;;;;;;;;;8406979;28;20535;-71
2022/08/06 21:23:08;;;;;;;1.40;0.50;;;;;;;;;;8409554;28;20092;-71
2022/08/06 21:27:08;;;;;;;0.85;0.60;;;;;;;;;;8410270;28;20421;-70
2022/08/06 21:31:09;;;;;;;1.27;0.50;;;;;;;;;;8412365;28;20028;-70
2022/08/06 21:35:09;;;;;;;3.78;0.60;;;;;;;;;;8416163;28;20305;-70
2022/08/06 21:39:10;;;;;;;0.52;0.40;;;;;;;;;;8414087;27;20566;-71
2022/08/06 21:43:10;;;;;;;1.05;0.52;;;;;;;;;;8413937;28;20110;-71
2022/08/06 21:47:10;;;;;;;0.40;0.40;;;;;;;;;;8411566;28;20177;-71
2022/08/06 21:51:10;;;;;;;1.10;0.70;;;;;;;;;;8414466;28;20028;-71
2022/08/06 21:55:12;;;;;;;0.60;0.60;;;;;;;;;;8413800;28;20913;-70
2022/08/06 21:59:13;;;;;;;1.42;0.55;;;;;;;;;;8414612;27;20390;-71
2022/08/06 22:03:16;;;;;;;2.78;0.50;;;;;;;;;;8392987;28;20564;-71
2022/08/06 22:07:16;;;;;;;0.50;0.47;;;;;;;;;;8413066;27;20869;-71
2022/08/06 22:11:16;;;;;;;1.73;0.60;;;;;;;;;;8413370;28;20426;-71
2022/08/06 22:15:17;;;;;;;1.35;0.65;;;;;;;;;;8416015;28;20031;-71
2022/08/06 22:19:17;;;;;;;0.43;0.40;;;;;;;;;;8414660;28;20038;-71
2022/08/06 22:23:17;;;;;;;0.70;0.50;;;;;;;;;;8411004;28;20067;-70
2022/08/06 22:27:17;;;;;;;1.50;0.52;;;;;;;;;;8393567;28;20083;-71
2022/08/06 22:31:18;;;;;;;1.98;0.65;;;;;;;;;;8412854;28;20355;-70
2022/08/06 22:35:18;;;;;;;1.00;0.50;;;;;;;;;;8413385;28;20027;-71
2022/08/06 22:39:18;;;;;;;0.50;0.50;;;;;;;;;;8407248;28;20024;-70
2022/08/06 22:43:20;;;;;;;0.57;0.50;;;;;;;;;;8411383;28;20091;-71
2022/08/06 22:47:20;;;;;;;0.55;0.50;;;;;;;;;;8414362;27;20128;-71
2022/08/06 22:51:21;;;;;;;1.58;0.57;;;;;;;;;;8413889;28;20496;-71
2022/08/06 22:55:21;;;;;;;0.82;0.52;;;;;;;;;;8415500;28;20308;-70
2022/08/06 22:59:21;;;;;;;0.70;0.50;;;;;;;;;;8416555;28;20028;-71
2022/08/06 23:03:21;;;;;;;1.90;0.60;;;;;;;;;;8412770;28;20027;-71
2022/08/06 23:07:22;;;;;;;0.47;0.47;;;;;;;;;;8413454;28;20472;-71
2022/08/06 23:11:22;;;;;;;1.67;0.67;;;;;;;;;;8395350;28;20020;-70
2022/08/06 23:15:23;;;;;;;1.65;0.52;;;;;;;;;;8413244;28;20837;-71
2022/08/06 23:19:23;;;;;;;0.63;0.60;;;;;;;;;;8395657;28;20016;-71
2022/08/06 23:23:23;;;;;;;0.50;0.50;;;;;;;;;;8413466;28;20051;-71
2022/08/06 23:27:23;;;;;;;0.52;0.50;;;;;;;;;;8393180;28;20031;-71
2022/08/06 23:31:24;;;;;;;4.05;0.52;;;;;;;;;;8411581;28;20035;-71
2022/08/06 23:35:24;;;;;;;1.53;0.50;;;;;;;;;;8414022;28;20036;-71
2022/08/06 23:39:25;;;;;;;0.50;0.45;;;;;;;;;;8413730;27;20039;-71
2022/08/06 23:43:25;;;;;;;1.48;0.65;;;;;;;;;;8415560;27;20264;-71
2022/08/06 23:47:25;;;;;;;2.85;0.50;;;;;;;;;;8409702;28;20035;-71
2022/08/06 23:51:25;;;;;;;0.50;0.50;;;;;;;;;;8408607;28;20472;-70
2022/08/06 23:55:25;;;;;;;0.50;0.50;;;;;;;;;;8413056;28;20107;-71
2022/08/06 23:59:26;;;;;;;1.50;0.70;;;;;;;;;;8379438;28;20806;-70
